Time;durP1;ratioP1;P1;durP2;ratioP2;P2;SDS_P1;SDS_P2;PMS_P1;PMS_P2;Temp;Humidity;BMP_temperature;BMP_pressure;BME280_temperature;BME280_humidity;BME280_pressure;Samples;Min_cycle;Max_cycle;Signal;HPM_P1;HPM_P2
2022/07/24 00:02:01;;;;;;;19.83;17.23;;;23.70;95.40;;;;;;5008398;28;20213;-22
2022/07/24 00:04:28;;;;;;;21.90;17.58;;;23.70;95.50;;;;;;5029989;28;20213;-22
2022/07/24 00:07:04;;;;;;;23.17;17.60;;;23.70;95.50;;;;;;5018215;28;20229;-22
2022/07/24 00:09:31;;;;;;;23.73;19.92;;;23.70;95.60;;;;;;5020506;28;20233;-22
2022/07/24 00:11:59;;;;;;;27.70;21.38;;;23.70;95.70;;;;;;5022680;28;20220;-22
2022/07/24 00:14:26;;;;;;;24.52;21.63;;;23.70;95.70;;;;;;5023357;28;20233;-22
2022/07/24 00:16:54;;;;;;;27.27;21.95;;;23.60;95.60;;;;;;5025476;28;20197;-22
2022/07/24 00:19:21;;;;;;;25.33;22.08;;;23.60;95.70;;;;;;5026697;28;20231;-22
2022/07/24 00:21:48;;;;;;;25.83;22.15;;;23.60;95.60;;;;;;5021130;28;20204;-22
2022/07/24 00:24:16;;;;;;;25.98;22.52;;;23.60;95.70;;;;;;5028015;28;20683;-22
2022/07/24 00:26:43;;;;;;;25.02;22.30;;;23.60;95.70;;;;;;5021624;28;20208;-30
2022/07/24 00:29:10;;;;;;;25.27;22.25;;;23.50;95.70;;;;;;5018448;28;20456;-30
2022/07/24 00:31:39;;;;;;;26.95;22.15;;;23.50;95.70;;;;;;5015038;28;20217;-30
2022/07/24 00:34:09;;;;;;;29.92;22.25;;;23.50;95.70;;;;;;5011415;28;20226;-30
2022/07/24 00:36:43;;;;;;;26.92;21.65;;;23.50;95.70;;;;;;5016726;28;20209;-30
2022/07/24 00:39:11;;;;;;;26.42;20.45;;;23.40;95.70;;;;;;5011609;28;20602;-30
2022/07/24 00:41:39;;;;;;;26.15;21.98;;;23.40;95.70;;;;;;5010838;28;20256;-30
2022/07/24 00:44:11;;;;;;;25.13;20.40;;;23.40;96.00;;;;;;5017530;28;20251;-30
2022/07/24 00:46:43;;;;;;;25.52;20.83;;;23.30;95.70;;;;;;5020810;28;20228;-30
2022/07/24 00:49:14;;;;;;;23.48;20.13;;;23.30;95.80;;;;;;5021727;28;20192;-22
2022/07/24 00:51:50;;;;;;;24.95;20.00;;;23.20;95.80;;;;;;5019687;28;20228;-22
2022/07/24 00:54:19;;;;;;;24.20;19.77;;;23.20;95.80;;;;;;5025421;28;20255;-22
2022/07/24 00:56:54;;;;;;;23.60;19.42;;;23.20;95.80;;;;;;5017714;28;20213;-22
2022/07/24 00:59:22;;;;;;;21.98;19.40;;;23.10;95.80;;;;;;5013860;28;20276;-30
2022/07/24 01:01:50;;;;;;;22.67;19.40;;;23.10;95.70;;;;;;5018665;28;20201;-30
2022/07/24 01:04:20;;;;;;;19.92;17.25;;;23.00;95.70;;;;;;5022242;28;20201;-29
2022/07/24 01:06:50;;;;;;;22.75;16.80;;;23.00;95.70;;;;;;5018519;28;20228;-30
2022/07/24 01:09:22;;;;;;;20.38;16.67;;;23.00;95.80;;;;;;5015176;28;20436;-30
2022/07/24 01:11:51;;;;;;;20.50;15.57;;;23.00;95.80;;;;;;5013635;28;20209;-22
2022/07/24 01:14:18;;;;;;;20.00;15.30;;;22.90;95.80;;;;;;5022202;28;20228;-22
2022/07/24 01:16:48;;;;;;;17.55;15.75;;;22.90;95.80;;;;;;5019888;28;20749;-22
2022/07/24 01:19:18;;;;;;;17.98;14.52;;;22.90;95.80;;;;;;5032263;28;20678;-22
2022/07/24 01:21:50;;;;;;;16.83;13.80;;;22.90;95.90;;;;;;5013935;28;20301;-22
2022/07/24 01:24:18;;;;;;;17.45;14.13;;;22.90;95.90;;;;;;5013046;28;20209;-22
2022/07/24 01:26:46;;;;;;;14.77;13.10;;;22.80;95.90;;;;;;5013508;28;20209;-22
2022/07/24 01:29:15;;;;;;;14.60;13.10;;;22.80;95.90;;;;;;5013640;28;20206;-22
2022/07/24 01:31:42;;;;;;;16.80;13.20;;;22.80;95.90;;;;;;5015770;28;20259;-22
2022/07/24 01:34:12;;;;;;;14.77;13.30;;;22.80;95.90;;;;;;5025936;28;20652;-22
2022/07/24 01:36:42;;;;;;;17.58;15.02;;;22.80;96.00;;;;;;5031026;28;20274;-22
2022/07/24 01:39:11;;;;;;;17.30;14.38;;;22.70;96.00;;;;;;5022267;28;20204;-22
2022/07/24 01:41:39;;;;;;;15.95;14.13;;;22.70;96.00;;;;;;5017960;28;20641;-22
2022/07/24 01:44:06;;;;;;;15.25;13.10;;;22.70;96.10;;;;;;5017282;28;20735;-22
2022/07/24 01:46:35;;;;;;;15.50;13.90;;;22.70;96.10;;;;;;5013558;28;20286;-22
2022/07/24 01:49:03;;;;;;;14.45;12.90;;;22.60;96.10;;;;;;5022885;28;20255;-22
2022/07/24 01:51:31;;;;;;;14.80;13.30;;;22.60;96.10;;;;;;5012051;28;20205;-22
2022/07/24 01:54:02;;;;;;;13.23;11.77;;;22.60;96.10;;;;;;5021274;28;20263;-22
2022/07/24 01:56:32;;;;;;;13.70;11.45;;;22.60;96.30;;;;;;5016985;28;20193;-22
2022/07/24 01:58:59;;;;;;;13.85;11.48;;;22.50;96.30;;;;;;5015850;28;20320;-22
2022/07/24 02:01:35;;;;;;;13.48;11.18;;;22.50;96.30;;;;;;5023686;28;20192;-22
2022/07/24 02:04:05;;;;;;;11.48;10.27;;;22.40;96.30;;;;;;5019240;28;20267;-22
2022/07/24 02:06:34;;;;;;;12.50;10.90;;;22.40;96.20;;;;;;5026696;28;20229;-22
2022/07/24 02:09:02;;;;;;;11.57;10.38;;;22.40;96.20;;;;;;5013042;28;20618;-22
2022/07/24 02:11:32;;;;;;;11.85;10.50;;;22.30;96.30;;;;;;5020938;28;20217;-22
2022/07/24 02:14:00;;;;;;;11.40;10.30;;;22.30;96.30;;;;;;5012971;28;20217;-22
2022/07/24 02:16:29;;;;;;;14.25;10.40;;;22.30;96.30;;;;;;5023900;28;20271;-22
2022/07/24 02:18:57;;;;;;;11.00;9.90;;;22.30;96.30;;;;;;5017128;28;20193;-22
2022/07/24 02:21:29;;;;;;;12.10;10.82;;;22.20;96.20;;;;;;5025293;28;20292;-22
2022/07/24 02:23:56;;;;;;;12.32;11.10;;;22.20;96.30;;;;;;5020174;28;20711;-22
2022/07/24 02:26:27;;;;;;;11.90;10.70;;;22.10;96.30;;;;;;5019668;28;20300;-22
2022/07/24 02:28:54;;;;;;;11.90;10.70;;;22.10;96.30;;;;;;5013378;28;20296;-22
2022/07/24 02:31:24;;;;;;;14.23;12.73;;;22.10;96.30;;;;;;5020096;28;20237;-22
2022/07/24 02:33:51;;;;;;;14.35;11.75;;;22.00;96.30;;;;;;5019062;28;20233;-30
2022/07/24 02:36:19;;;;;;;15.02;12.27;;;22.00;96.30;;;;;;5020965;28;20201;-22
2022/07/24 02:38:51;;;;;;;15.02;13.48;;;22.00;96.30;;;;;;5018100;28;20197;-22
2022/07/24 02:41:18;;;;;;;14.20;12.23;;;21.90;96.30;;;;;;5018009;28;20217;-22
2022/07/24 02:43:45;;;;;;;15.30;13.70;;;21.90;96.30;;;;;;5025597;28;20690;-22
2022/07/24 02:46:18;;;;;;;15.48;13.80;;;21.90;96.40;;;;;;5022458;28;20211;-22
2022/07/24 02:48:45;;;;;;;16.20;13.93;;;21.90;96.40;;;;;;5022109;28;20675;-22
2022/07/24 02:51:15;;;;;;;17.38;14.85;;;21.80;96.40;;;;;;5030904;28;20208;-22
2022/07/24 02:53:47;;;;;;;15.70;13.38;;;21.80;96.40;;;;;;5027110;28;20616;-22
2022/07/24 02:56:14;;;;;;;15.45;13.80;;;21.80;96.40;;;;;;5029041;28;20212;-22
2022/07/24 02:58:43;;;;;;;16.67;14.30;;;21.70;96.40;;;;;;5013921;28;20356;-22
2022/07/24 03:01:11;;;;;;;16.15;13.85;;;21.70;96.50;;;;;;5014836;28;20198;-22
2022/07/24 03:03:38;;;;;;;16.60;14.80;;;21.70;96.50;;;;;;5013203;28;20206;-22
2022/07/24 03:06:08;;;;;;;17.70;13.82;;;21.70;96.50;;;;;;5021223;28;20212;-22
2022/07/24 03:08:37;;;;;;;18.05;13.35;;;21.60;96.50;;;;;;5026990;28;20635;-22
2022/07/24 03:11:07;;;;;;;15.05;13.48;;;21.60;96.50;;;;;;5012015;28;20288;-22
2022/07/24 03:13:35;;;;;;;17.35;13.50;;;21.60;96.50;;;;;;5020409;28;20208;-22
2022/07/24 03:16:04;;;;;;;16.13;14.05;;;21.50;96.50;;;;;;5024389;28;20260;-22
2022/07/24 03:18:32;;;;;;;14.98;12.85;;;21.50;96.60;;;;;;5010693;28;20198;-22
2022/07/24 03:20:59;;;;;;;15.30;13.02;;;21.50;96.60;;;;;;5014462;28;20200;-22
2022/07/24 03:23:29;;;;;;;17.50;14.52;;;21.50;96.60;;;;;;5019399;28;20296;-30
2022/07/24 03:25:57;;;;;;;15.23;13.63;;;21.40;96.70;;;;;;5031888;28;20374;-30
2022/07/24 03:28:27;;;;;;;15.45;13.85;;;21.40;96.70;;;;;;5040239;28;20753;-30
2022/07/24 03:30:54;;;;;;;17.20;13.68;;;21.40;96.70;;;;;;5012842;28;20229;-30
2022/07/24 03:33:27;;;;;;;16.95;14.68;;;21.30;96.70;;;;;;5025097;28;20213;-30
2022/07/24 03:36:00;;;;;;;16.85;15.18;;;21.30;96.70;;;;;;5022937;28;20270;-30
2022/07/24 03:38:27;;;;;;;16.45;14.75;;;21.30;96.70;;;;;;5013798;28;20197;-30
2022/07/24 03:40:59;;;;;;;20.23;16.50;;;21.20;96.80;;;;;;5015295;28;20591;-22
2022/07/24 03:43:26;;;;;;;17.63;15.85;;;21.20;96.90;;;;;;5030250;28;20240;-22
2022/07/24 03:45:57;;;;;;;17.63;15.52;;;21.20;96.90;;;;;;5027718;28;20444;-22
2022/07/24 03:48:29;;;;;;;17.98;16.02;;;21.20;96.80;;;;;;5026960;28;20200;-22
2022/07/24 03:50:59;;;;;;;17.65;15.50;;;21.20;96.90;;;;;;5021063;28;20718;-22
2022/07/24 03:53:29;;;;;;;17.90;15.57;;;21.10;96.90;;;;;;5018270;28;20259;-22
2022/07/24 03:56:06;;;;;;;17.15;15.38;;;21.10;96.90;;;;;;5028114;28;20728;-23
2022/07/24 03:58:35;;;;;;;18.00;16.10;;;21.10;96.90;;;;;;5016356;28;20280;-22
2022/07/24 04:01:11;;;;;;;17.55;15.75;;;21.10;96.90;;;;;;5018225;28;20591;-22
2022/07/24 04:03:40;;;;;;;19.45;17.17;;;21.10;96.90;;;;;;5025184;28;20239;-22
2022/07/24 04:06:12;;;;;;;19.00;16.25;;;21.10;96.90;;;;;;5023141;28;20263;-22
2022/07/24 04:08:40;;;;;;;18.95;16.98;;;21.00;96.90;;;;;;5020358;28;20659;-22
2022/07/24 04:11:07;;;;;;;20.77;17.40;;;21.10;96.90;;;;;;5024952;28;20628;-30
2022/07/24 04:13:37;;;;;;;19.77;17.20;;;21.00;96.90;;;;;;5010088;28;20659;-30
2022/07/24 04:16:09;;;;;;;18.85;16.88;;;21.10;97.00;;;;;;5022964;28;20238;-29
2022/07/24 04:18:37;;;;;;;19.23;17.23;;;21.00;97.00;;;;;;5016535;28;20214;-30
2022/07/24 04:21:07;;;;;;;19.90;17.58;;;21.00;97.00;;;;;;5020508;28;20262;-30
2022/07/24 04:23:37;;;;;;;20.77;18.20;;;21.10;97.10;;;;;;5015240;28;20224;-30
2022/07/24 04:26:06;;;;;;;19.48;17.30;;;21.00;97.10;;;;;;5024321;28;20206;-30
2022/07/24 04:28:34;;;;;;;20.75;17.88;;;21.00;97.10;;;;;;5016164;28;20229;-22
2022/07/24 04:31:02;;;;;;;20.58;17.70;;;21.00;97.20;;;;;;5017882;28;20651;-22
2022/07/24 04:33:29;;;;;;;21.23;18.90;;;21.00;97.20;;;;;;5024877;28;20197;-22
2022/07/24 04:35:56;;;;;;;20.63;18.05;;;21.00;97.20;;;;;;5023786;28;20233;-22
2022/07/24 04:38:26;;;;;;;21.02;18.33;;;21.00;97.20;;;;;;5009630;28;20210;-22
2022/07/24 04:40:53;;;;;;;19.95;17.85;;;21.00;97.20;;;;;;5015339;28;20232;-22
2022/07/24 04:43:23;;;;;;;21.13;16.48;;;21.00;97.20;;;;;;5028164;28;20291;-22
2022/07/24 04:45:52;;;;;;;21.83;17.60;;;21.00;97.30;;;;;;5022788;28;20204;-22
2022/07/24 04:48:27;;;;;;;20.55;17.25;;;21.00;97.30;;;;;;5018370;28;20707;-22
2022/07/24 04:50:57;;;;;;;19.48;16.88;;;21.00;97.30;;;;;;5021692;28;20223;-30
2022/07/24 04:53:27;;;;;;;21.85;17.30;;;21.00;97.30;;;;;;5034116;28;20208;-30
2022/07/24 04:55:57;;;;;;;19.55;17.45;;;21.00;97.40;;;;;;5034238;28;20233;-30
2022/07/24 04:58:25;;;;;;;18.55;16.70;;;21.00;97.40;;;;;;5022617;28;20269;-30
2022/07/24 05:00:53;;;;;;;19.20;16.45;;;21.00;97.40;;;;;;5011228;28;20255;-29
2022/07/24 05:03:22;;;;;;;18.75;15.85;;;21.00;97.40;;;;;;5021046;28;20472;-30
2022/07/24 05:05:50;;;;;;;18.42;16.52;;;21.00;97.50;;;;;;5009149;28;20590;-29
2022/07/24 05:08:20;;;;;;;20.05;17.42;;;21.00;97.50;;;;;;5015616;28;20233;-29
2022/07/24 05:10:49;;;;;;;18.85;16.27;;;21.00;97.50;;;;;;5019695;28;20205;-29
2022/07/24 05:13:19;;;;;;;18.17;16.27;;;21.00;97.50;;;;;;5017975;28;20213;-22
2022/07/24 05:15:48;;;;;;;18.88;16.15;;;21.00;97.50;;;;;;5015896;28;20301;-22
2022/07/24 05:18:19;;;;;;;18.40;16.25;;;21.10;97.60;;;;;;5019657;28;20648;-22
2022/07/24 05:20:48;;;;;;;17.88;15.90;;;21.10;97.60;;;;;;5023370;28;20228;-22
2022/07/24 05:23:15;;;;;;;19.10;16.95;;;21.10;97.60;;;;;;5016910;28;20616;-23
2022/07/24 05:25:43;;;;;;;19.13;17.10;;;21.10;97.60;;;;;;5015117;28;20296;-23
2022/07/24 05:28:16;;;;;;;17.42;15.57;;;21.10;97.60;;;;;;5014867;28;20216;-30
2022/07/24 05:30:50;;;;;;;18.42;16.60;;;21.10;97.60;;;;;;5026045;28;20228;-30
2022/07/24 05:33:17;;;;;;;20.30;16.35;;;21.20;97.70;;;;;;5021188;28;20197;-30
2022/07/24 05:35:45;;;;;;;21.73;16.05;;;21.20;97.80;;;;;;5013375;28;20667;-35
2022/07/24 05:38:15;;;;;;;21.10;17.48;;;21.20;97.80;;;;;;5015088;28;20638;-30
2022/07/24 05:40:45;;;;;;;20.50;16.23;;;21.30;97.80;;;;;;5010452;28;20197;-30
2022/07/24 05:43:12;;;;;;;17.90;16.02;;;21.30;97.80;;;;;;5011654;28;20272;-30
2022/07/24 05:45:44;;;;;;;18.02;16.13;;;21.30;97.80;;;;;;5020491;28;20204;-30
2022/07/24 05:48:14;;;;;;;18.23;15.98;;;21.30;97.80;;;;;;5008273;28;20221;-30
2022/07/24 05:50:43;;;;;;;23.83;17.05;;;21.30;97.80;;;;;;5023162;28;20189;-22
2022/07/24 05:53:11;;;;;;;19.95;15.48;;;21.40;97.90;;;;;;5015277;28;20295;-22
2022/07/24 05:55:41;;;;;;;18.50;16.42;;;21.40;97.90;;;;;;5018511;28;20668;-23
2022/07/24 05:58:08;;;;;;;18.27;15.90;;;21.40;97.90;;;;;;5020281;28;20231;-23
2022/07/24 06:00:35;;;;;;;19.08;15.63;;;21.50;97.90;;;;;;5012556;28;20220;-22
2022/07/24 06:03:03;;;;;;;20.42;15.95;;;21.50;97.90;;;;;;5010043;28;20232;-22
2022/07/24 06:05:33;;;;;;;18.10;15.25;;;21.50;98.00;;;;;;5021258;28;20220;-22
2022/07/24 06:08:00;;;;;;;17.30;14.25;;;21.50;97.90;;;;;;5016733;28;20272;-23
2022/07/24 06:10:31;;;;;;;18.27;13.70;;;21.50;98.00;;;;;;5008476;28;20205;-22
2022/07/24 06:12:58;;;;;;;17.40;13.95;;;21.50;97.90;;;;;;5025595;28;20844;-22
2022/07/24 06:15:26;;;;;;;15.38;13.30;;;21.50;97.90;;;;;;5014926;28;20229;-22
2022/07/24 06:17:53;;;;;;;14.10;11.45;;;21.50;97.90;;;;;;5011918;28;20207;-23
2022/07/24 06:20:25;;;;;;;14.77;12.07;;;21.60;98.00;;;;;;5033783;28;20206;-22
2022/07/24 06:22:57;;;;;;;12.73;11.35;;;21.60;98.00;;;;;;5029458;28;20703;-23
2022/07/24 06:25:29;;;;;;;13.95;11.55;;;21.70;98.10;;;;;;5009174;28;20209;-22
2022/07/24 06:27:57;;;;;;;13.65;11.35;;;21.70;98.10;;;;;;5017252;28;20630;-22
2022/07/24 06:30:30;;;;;;;11.80;10.60;;;21.70;98.10;;;;;;5014619;28;20739;-23
2022/07/24 06:32:58;;;;;;;13.60;10.13;;;21.70;98.10;;;;;;5013542;28;20225;-23
2022/07/24 06:35:32;;;;;;;12.77;9.60;;;21.80;98.10;;;;;;5018221;28;20320;-23
2022/07/24 06:38:03;;;;;;;9.68;8.52;;;21.80;98.00;;;;;;5011416;28;20213;-22
2022/07/24 06:40:30;;;;;;;11.70;9.55;;;21.90;98.10;;;;;;5011962;28;20337;-23
2022/07/24 06:43:02;;;;;;;11.02;9.07;;;21.90;98.10;;;;;;5011506;28;20255;-22
2022/07/24 06:45:32;;;;;;;12.48;8.60;;;21.90;98.00;;;;;;5016421;28;20209;-23
2022/07/24 06:48:03;;;;;;;10.98;8.38;;;22.00;98.10;;;;;;5020993;28;20583;-22
2022/07/24 06:50:32;;;;;;;15.40;9.38;;;22.00;98.10;;;;;;5030007;28;20205;-23
2022/07/24 06:53:07;;;;;;;12.90;8.50;;;22.10;98.10;;;;;;5036326;28;20204;-23
2022/07/24 06:55:34;;;;;;;13.60;8.63;;;22.10;98.10;;;;;;5023858;28;20274;-23
2022/07/24 06:58:04;;;;;;;11.80;9.18;;;22.10;98.00;;;;;;5028130;28;20243;-23
2022/07/24 07:00:31;;;;;;;13.52;8.57;;;22.10;98.00;;;;;;5030954;28;20205;-23
2022/07/24 07:02:58;;;;;;;14.88;9.00;;;22.20;98.00;;;;;;5025629;28;20201;-23
2022/07/24 07:05:30;;;;;;;12.85;9.02;;;22.20;98.00;;;;;;5016079;28;20217;-22
2022/07/24 07:07:57;;;;;;;13.18;8.35;;;22.30;98.00;;;;;;5029584;28;20217;-23
2022/07/24 07:10:27;;;;;;;10.77;7.80;;;22.30;98.00;;;;;;5030460;28;20208;-23
2022/07/24 07:12:55;;;;;;;12.43;8.27;;;22.30;98.00;;;;;;5026603;28;20265;-23
2022/07/24 07:15:24;;;;;;;13.68;8.07;;;22.40;98.10;;;;;;5015819;28;20243;-22
2022/07/24 07:17:54;;;;;;;10.00;7.57;;;22.40;98.30;;;;;;5010350;28;20656;-22
2022/07/24 07:20:25;;;;;;;10.93;7.78;;;22.50;98.10;;;;;;5018222;28;20295;-23
2022/07/24 07:22:52;;;;;;;9.43;7.93;;;22.50;98.00;;;;;;5027742;28;20264;-22
2022/07/24 07:25:24;;;;;;;12.02;7.45;;;22.60;98.00;;;;;;5010901;28;20225;-23
2022/07/24 07:27:53;;;;;;;9.80;7.68;;;22.60;98.00;;;;;;5042260;28;20216;-23
2022/07/24 07:30:23;;;;;;;10.00;7.15;;;22.60;98.00;;;;;;5050295;28;20216;-22
2022/07/24 07:32:50;;;;;;;9.68;7.65;;;22.60;98.10;;;;;;5002548;28;20232;-23
2022/07/24 07:35:22;;;;;;;10.95;7.68;;;22.70;98.10;;;;;;5027296;28;20562;-23
2022/07/24 07:37:54;;;;;;;12.57;7.97;;;22.70;98.10;;;;;;5025325;28;20663;-22
2022/07/24 07:40:25;;;;;;;9.45;7.30;;;22.70;98.10;;;;;;5009261;28;20218;-23
2022/07/24 07:42:55;;;;;;;10.07;7.28;;;22.80;98.10;;;;;;5010077;28;20306;-23
2022/07/24 07:45:24;;;;;;;7.03;6.28;;;22.90;98.10;;;;;;5014773;28;20205;-23
2022/07/24 07:48:00;;;;;;;8.32;6.93;;;22.90;98.10;;;;;;5028689;28;20208;-30
2022/07/24 07:50:28;;;;;;;10.73;6.78;;;22.90;98.10;;;;;;5015509;28;20266;-30
2022/07/24 07:52:55;;;;;;;8.13;6.50;;;23.00;98.20;;;;;;5027902;28;20307;-23
2022/07/24 07:55:22;;;;;;;7.93;6.32;;;23.00;98.20;;;;;;5011032;28;20229;-23
2022/07/24 07:57:50;;;;;;;7.78;6.22;;;23.10;98.30;;;;;;5009580;28;20643;-23
2022/07/24 08:00:35;;;;;;;7.18;5.78;;;23.10;98.30;;;;;;5025859;28;20307;-23
2022/07/24 08:03:02;;;;;;;5.93;5.32;;;23.20;98.30;;;;;;5024590;28;20615;-24
2022/07/24 08:05:34;;;;;;;8.85;6.03;;;23.20;98.30;;;;;;5016926;28;20312;-24
2022/07/24 08:08:07;;;;;;;9.90;5.72;;;23.30;98.40;;;;;;5010589;28;20267;-24
2022/07/24 08:10:34;;;;;;;7.60;5.13;;;23.30;98.40;;;;;;5010989;28;20592;-24
2022/07/24 08:13:01;;;;;;;7.63;5.32;;;23.40;98.50;;;;;;5012447;28;20685;-24
2022/07/24 08:15:31;;;;;;;6.10;5.00;;;23.40;98.50;;;;;;5028148;28;20319;-24
2022/07/24 08:17:58;;;;;;;5.15;4.65;;;23.50;98.50;;;;;;5010828;28;20296;-24
2022/07/24 08:20:27;;;;;;;7.65;4.43;;;23.50;98.50;;;;;;5020523;28;20579;-24
2022/07/24 08:22:54;;;;;;;5.05;4.13;;;23.60;98.50;;;;;;5015107;28;20197;-24
2022/07/24 08:25:26;;;;;;;7.53;4.88;;;23.60;98.40;;;;;;5009750;28;20213;-24
2022/07/24 08:27:56;;;;;;;5.85;4.25;;;23.70;98.50;;;;;;5018716;28;20209;-25
2022/07/24 08:30:25;;;;;;;4.20;3.80;;;23.70;98.50;;;;;;5015269;28;20218;-29
2022/07/24 08:32:52;;;;;;;4.25;3.85;;;23.70;98.50;;;;;;5011320;28;20247;-24
2022/07/24 08:35:23;;;;;;;5.03;3.90;;;23.80;98.50;;;;;;5028360;28;20220;-24
2022/07/24 08:37:58;;;;;;;3.80;3.40;;;23.90;98.50;;;;;;5028887;28;20209;-24
2022/07/24 08:40:27;;;;;;;4.40;4.00;;;23.90;98.50;;;;;;5014701;28;20449;-24
2022/07/24 08:42:55;;;;;;;3.72;3.40;;;23.90;98.50;;;;;;5009786;28;20197;-24
2022/07/24 08:45:24;;;;;;;3.55;3.25;;;24.00;98.60;;;;;;5009182;28;20213;-24
2022/07/24 08:47:52;;;;;;;4.20;3.20;;;24.10;98.60;;;;;;5020394;28;20294;-24
2022/07/24 08:50:22;;;;;;;3.75;3.20;;;24.10;98.60;;;;;;5012799;28;20730;-24
2022/07/24 08:52:50;;;;;;;3.22;2.78;;;24.20;98.60;;;;;;5008774;28;20626;-24
2022/07/24 08:55:20;;;;;;;5.03;2.38;;;24.30;98.50;;;;;;5023192;28;20324;-24
2022/07/24 08:57:49;;;;;;;4.38;2.72;;;24.30;98.50;;;;;;5027184;28;20282;-25
2022/07/24 09:00:19;;;;;;;3.10;2.80;;;24.30;98.50;;;;;;5021133;28;20233;-24
2022/07/24 09:02:46;;;;;;;4.03;2.60;;;24.40;98.60;;;;;;5007819;28;20740;-24
2022/07/24 09:05:16;;;;;;;3.03;2.63;;;24.40;98.40;;;;;;5009738;28;20215;-24
2022/07/24 09:08:07;;;;;;;2.92;2.50;;;24.50;98.50;;;;;;5008547;28;20230;-23
2022/07/24 09:10:37;;;;;;;3.28;2.35;;;24.50;98.50;;;;;;5018130;28;20630;-23
2022/07/24 09:13:16;;;;;;;2.85;2.65;;;24.60;98.50;;;;;;5026982;28;20937;-23
2022/07/24 09:15:45;;;;;;;2.50;2.30;;;24.60;98.50;;;;;;5023332;28;20221;-23
2022/07/24 09:18:31;;;;;;;3.00;2.47;;;24.70;98.60;;;;;;5020367;28;20236;-23
2022/07/24 09:21:15;;;;;;;2.40;2.20;;;24.70;98.50;;;;;;5025515;28;20627;-23
2022/07/24 09:23:47;;;;;;;2.47;2.28;;;24.80;98.60;;;;;;5011131;28;20222;-23
2022/07/24 09:26:14;;;;;;;3.80;2.30;;;24.80;98.50;;;;;;5016326;28;20205;-24
2022/07/24 09:28:54;;;;;;;3.92;1.90;;;24.90;98.50;;;;;;5043156;28;20220;-23
2022/07/24 09:31:24;;;;;;;2.35;2.00;;;24.90;98.50;;;;;;5006333;28;20637;-23
2022/07/24 09:33:59;;;;;;;2.35;1.80;;;25.00;98.60;;;;;;5009549;28;21270;-24
2022/07/24 09:36:27;;;;;;;2.50;2.30;;;25.00;98.50;;;;;;5015025;28;20613;-23
2022/07/24 09:38:56;;;;;;;2.40;2.10;;;25.10;98.50;;;;;;5010157;28;20236;-23
2022/07/24 09:41:24;;;;;;;3.83;1.90;;;25.10;98.50;;;;;;5008064;28;20316;-24
2022/07/24 09:44:03;;;;;;;1.80;1.70;;;25.20;98.50;;;;;;5022511;28;20650;-23
2022/07/24 09:46:56;;;;;;;2.80;1.60;;;25.30;98.40;;;;;;5009069;28;20209;-23
2022/07/24 09:49:25;;;;;;;1.80;1.70;;;25.30;98.40;;;;;;5008372;28;20584;-23
2022/07/24 09:52:15;;;;;;;2.53;1.67;;;25.40;98.50;;;;;;5014476;28;20673;-22
2022/07/24 09:54:48;;;;;;;5.88;1.90;;;25.50;98.40;;;;;;5026100;28;20275;-23
2022/07/24 09:57:29;;;;;;;1.77;1.65;;;25.50;98.40;;;;;;5014063;28;20213;-23
2022/07/24 10:00:02;;;;;;;2.60;1.63;;;25.60;98.40;;;;;;5010063;28;20291;-24
2022/07/24 10:02:36;;;;;;;2.60;1.75;;;25.60;98.40;;;;;;5021861;28;20269;-23
2022/07/24 10:05:05;;;;;;;3.10;1.90;;;25.70;98.40;;;;;;5019679;28;20209;-23
2022/07/24 10:07:35;;;;;;;3.17;1.27;;;25.70;98.40;;;;;;5041768;28;20323;-23
2022/07/24 10:10:05;;;;;;;1.55;1.45;;;25.80;98.50;;;;;;5029154;28;20216;-23
2022/07/24 10:12:39;;;;;;;1.48;1.38;;;25.80;98.40;;;;;;5014859;28;20212;-23
2022/07/24 10:15:07;;;;;;;2.05;1.83;;;25.90;98.40;;;;;;5011033;28;20292;-23
2022/07/24 10:18:02;;;;;;;3.38;1.50;;;25.90;98.30;;;;;;5009396;28;20252;-23
2022/07/24 10:20:55;;;;;;;2.65;1.77;;;26.00;98.40;;;;;;5016675;28;20304;-23
2022/07/24 10:23:25;;;;;;;1.73;1.63;;;26.10;98.40;;;;;;5011179;28;20251;-24
2022/07/24 10:26:02;;;;;;;2.35;1.67;;;26.10;98.40;;;;;;5019309;28;20740;-24
2022/07/24 10:28:42;;;;;;;1.55;1.45;;;26.10;98.30;;;;;;5013672;28;20276;-24
2022/07/24 10:31:13;;;;;;;1.80;1.70;;;26.20;98.30;;;;;;5029074;28;20204;-24
2022/07/24 10:33:43;;;;;;;2.25;1.67;;;26.20;98.30;;;;;;5025007;28;20215;-25
2022/07/24 10:36:19;;;;;;;2.55;1.80;;;26.30;98.30;;;;;;4998163;28;20249;-25
2022/07/24 10:39:04;;;;;;;1.65;1.55;;;26.30;98.30;;;;;;5011480;28;20772;-25
2022/07/24 10:41:35;;;;;;;3.30;1.65;;;26.40;98.30;;;;;;5028779;28;20372;-25
2022/07/24 10:44:17;;;;;;;3.28;1.70;;;26.40;98.30;;;;;;5011367;28;20279;-25
2022/07/24 10:47:12;;;;;;;3.15;1.70;;;26.50;98.60;;;;;;5011254;28;20218;-25
2022/07/24 10:49:48;;;;;;;1.65;1.55;;;26.60;98.20;;;;;;5023818;28;20211;-25
2022/07/24 10:52:28;;;;;;;1.88;1.67;;;26.60;98.20;;;;;;5029889;28;20715;-25
2022/07/24 10:55:29;;;;;;;2.10;1.50;;;26.70;98.30;;;;;;5027985;28;20248;-25
2022/07/24 10:58:15;;;;;;;2.83;1.60;;;26.80;98.30;;;;;;5018651;28;20650;-25
2022/07/24 11:00:52;;;;;;;2.65;1.50;;;26.80;98.30;;;;;;5020834;28;20217;-25
2022/07/24 11:03:26;;;;;;;2.28;1.50;;;26.90;98.40;;;;;;5020975;28;20224;-25
2022/07/24 11:06:04;;;;;;;1.67;1.30;;;26.90;98.30;;;;;;5016492;28;20209;-25
2022/07/24 11:08:48;;;;;;;1.63;1.52;;;27.00;98.30;;;;;;5011215;28;20297;-25
2022/07/24 11:11:20;;;;;;;1.48;1.38;;;27.00;98.00;;;;;;5019696;28;20213;-25
2022/07/24 11:13:56;;;;;;;1.38;1.27;;;27.10;98.20;;;;;;5018549;28;20303;-25
2022/07/24 11:16:27;;;;;;;2.00;1.40;;;27.10;98.10;;;;;;5019047;28;20213;-25
2022/07/24 11:18:57;;;;;;;4.07;1.30;;;27.20;98.10;;;;;;5014630;28;20619;-25
2022/07/24 11:21:40;;;;;;;2.28;1.60;;;27.20;98.10;;;;;;5028632;28;20225;-25
2022/07/24 11:24:14;;;;;;;2.38;1.40;;;27.30;98.10;;;;;;5020479;28;20190;-25
2022/07/24 11:26:55;;;;;;;2.92;1.50;;;27.30;98.20;;;;;;5021867;28;20650;-25
2022/07/24 11:29:27;;;;;;;2.25;1.25;;;27.40;98.20;;;;;;5029872;28;20213;-31
2022/07/24 11:31:57;;;;;;;1.27;1.17;;;27.40;98.10;;;;;;5027988;28;20205;-30
2022/07/24 11:34:26;;;;;;;2.15;1.30;;;27.50;98.10;;;;;;5017950;28;20232;-30
2022/07/24 11:36:57;;;;;;;2.75;2.40;;;27.50;98.10;;;;;;5018713;28;20221;-30
2022/07/24 11:39:39;;;;;;;2.95;2.60;;;27.60;98.10;;;;;;5017971;28;20197;-30
2022/07/24 11:42:11;;;;;;;4.28;2.08;;;27.60;98.00;;;;;;5017216;28;20292;-30
2022/07/24 11:44:47;;;;;;;1.38;1.27;;;27.70;98.10;;;;;;5016729;28;20200;-29
2022/07/24 11:47:23;;;;;;;1.40;1.30;;;27.70;98.20;;;;;;5024925;28;20234;-30
2022/07/24 11:49:55;;;;;;;1.27;1.17;;;27.80;98.00;;;;;;5022375;28;20198;-27
2022/07/24 11:52:37;;;;;;;1.45;1.27;;;27.90;98.20;;;;;;5015329;28;20630;-25
2022/07/24 11:55:09;;;;;;;1.13;1.00;;;28.00;98.20;;;;;;5015808;28;20205;-24
2022/07/24 11:57:47;;;;;;;1.30;1.20;;;28.00;98.20;;;;;;5019614;28;20734;-25
2022/07/24 12:00:35;;;;;;;1.30;1.20;;;28.10;98.10;;;;;;5010221;28;20213;-31
2022/07/24 12:03:05;;;;;;;1.50;1.40;;;28.20;98.10;;;;;;5023810;28;20278;-31
2022/07/24 12:05:40;;;;;;;1.58;1.48;;;28.20;98.10;;;;;;5026002;28;20267;-25
2022/07/24 12:08:26;;;;;;;1.58;1.20;;;28.20;98.10;;;;;;5026441;28;20207;-25
2022/07/24 12:10:58;;;;;;;2.92;1.58;;;28.30;98.00;;;;;;5017049;28;20201;-25
2022/07/24 12:13:30;;;;;;;1.30;1.20;;;28.30;98.00;;;;;;5010087;28;20221;-30
2022/07/24 12:16:00;;;;;;;1.30;1.20;;;28.40;98.30;;;;;;5014334;28;20212;-31
2022/07/24 12:18:27;;;;;;;1.55;1.45;;;28.50;98.10;;;;;;5025079;28;20608;-30
2022/07/24 12:21:09;;;;;;;1.52;1.42;;;28.50;98.00;;;;;;5022522;28;20787;-31
2022/07/24 12:23:39;;;;;;;1.63;1.52;;;28.60;98.00;;;;;;5009479;28;20205;-31
2022/07/24 12:26:06;;;;;;;1.73;1.60;;;28.60;97.90;;;;;;5023797;28;20236;-31
2022/07/24 12:28:36;;;;;;;1.58;1.33;;;28.70;98.00;;;;;;5010881;28;20217;-31
2022/07/24 12:31:11;;;;;;;3.40;1.90;;;28.70;97.90;;;;;;5009466;28;20217;-31
2022/07/24 12:33:39;;;;;;;2.90;1.92;;;28.80;97.70;;;;;;5009468;28;20190;-31
2022/07/24 12:36:11;;;;;;;2.30;2.10;;;28.80;97.80;;;;;;5011339;28;20580;-30
2022/07/24 12:38:57;;;;;;;2.90;2.00;;;28.80;97.90;;;;;;5010566;28;20224;-31
2022/07/24 12:41:27;;;;;;;2.90;1.98;;;28.90;97.50;;;;;;5009769;28;20279;-31
2022/07/24 12:44:01;;;;;;;1.90;1.77;;;28.90;97.80;;;;;;5014138;28;20610;-31
2022/07/24 12:46:40;;;;;;;3.78;2.10;;;29.00;97.60;;;;;;5016001;28;20225;-25
2022/07/24 12:49:13;;;;;;;2.47;2.22;;;29.00;97.60;;;;;;5012288;28;20208;-25
2022/07/24 12:51:45;;;;;;;4.72;1.88;;;29.00;97.70;;;;;;5023917;28;20251;-25
2022/07/24 12:54:25;;;;;;;2.70;2.30;;;29.10;97.50;;;;;;5019963;28;20573;-25
2022/07/24 12:57:00;;;;;;;2.55;2.33;;;29.20;97.60;;;;;;5010580;28;20752;-25